EDT,Max TemperatureF,Mean TemperatureF,Min TemperatureF,Max Dew PointF,MeanDew PointF,Min DewpointF,Max Humidity, Mean Humidity, Min Humidity, Max Sea Level PressureIn, Mean Sea Level PressureIn, Min Sea Level PressureIn, Max VisibilityMiles, Mean VisibilityMiles, Min VisibilityMiles, Max Wind SpeedMPH, Mean Wind SpeedMPH, Max Gust SpeedMPH,PrecipitationIn, CloudCover, Events, WindDirDegrees
2012-3-1,80,72,63,63,60,53,90,71,39,29.92,29.85,29.75,10,10,10,23,12,31,0.00,2,Rain,241
2012-3-2,68,62,55,63,59,54,100,91,73,30.02,29.92,29.81,10,6,0,13,6,20,0.00,5,Fog,159
2012-3-3,70,64,57,63,59,56,100,88,71,29.80,29.75,29.70,10,9,4,15,9,25,0.53,6,Rain,219
2012-3-4,57,48,37,55,43,31,100,84,53,30.09,29.75,29.64,10,8,3,20,10,29,1.10,7,Rain,337
2012-3-5,59,47,35,35,28,21,79,51,26,30.52,30.18,30.00,10,10,10,29,10,40,0.00,2,,266
2012-3-6,53,42,30,35,27,22,86,60,32,30.71,30.65,30.53,10,10,10,9,4,,0.00,0,,49
2012-3-7,66,51,36,51,43,33,90,75,54,30.69,30.61,30.50,10,10,8,12,4,,0.00,4,,86
2012-3-8,72,60,48,60,51,47,100,81,48,30.49,30.39,30.20,10,7,0,20,3,26,0.00,5,Fog,185
2012-3-9,64,54,43,61,54,40,100,87,63,30.31,30.17,30.11,10,10,7,21,8,26,0.02,6,Rain,306
2012-3-10,57,46,35,39,35,31,100,68,36,30.56,30.44,30.31,10,9,2,16,5,21,0.00,0,,43
2012-3-11,63,49,35,43,34,24,92,62,24,30.61,30.53,30.47,10,10,10,9,5,,0.00,0,,63
2012-3-12,70,54,39,53,44,37,100,79,45,30.47,30.41,30.32,10,10,2,15,3,22,0.00,2,,179
2012-3-13,75,62,51,57,54,48,89,72,51,30.32,30.25,30.18,10,10,10,13,5,20,0.00,4,,203
2012-3-14,82,69,57,61,58,54,93,75,39,30.26,30.21,30.17,10,10,8,10,6,,0.00,1,,212
2012-3-15,82,68,53,61,57,52,100,78,42,30.31,30.27,30.23,10,8,2,15,3,21,0.01,1,,163
2012-3-16,78,66,53,63,59,54,100,89,54,30.28,30.22,30.15,10,5,0,14,3,23,0.03,2,Fog-Rain,201
2012-3-17,81,70,60,63,59,57,97,79,45,30.27,30.21,30.17,10,9,2,13,4,,0.15,3,Rain,139
2012-3-18,72,64,57,61,59,57,100,93,66,30.33,30.26,30.22,10,5,1,9,6,,0.00,6,,49
2012-3-19,78,64,53,61,57,54,100,90,54,30.25,30.20,30.15,10,4,0,13,1,,0.00,3,Fog,257
2012-3-20,79,66,53,63,56,52,100,88,45,30.26,30.20,30.17,10,5,1,13,1,,0.00,1,,157
2012-3-21,75,65,57,64,60,57,100,92,64,30.32,30.27,30.23,10,4,0,15,2,21,0.73,4,Fog-Rain-Thunderstorm,200
2012-3-22,77,68,60,63,61,59,100,79,58,30.31,30.25,30.20,10,10,2,13,4,23,0.00,4,,157
2012-3-23,82,68,55,63,60,55,100,90,52,30.19,30.13,30.03,10,4,0,12,1,17,0.01,1,Fog,183
2012-3-24,78,68,60,67,64,61,100,94,62,30.04,29.94,29.82,10,5,0,18,3,24,0.22,6,Fog-Rain-Thunderstorm,182
2012-3-25,72,61,51,63,57,48,100,87,57,29.79,29.72,29.65,10,8,0,20,6,38,3.95,5,Fog-Rain-Thunderstorm,300
2012-3-26,75,66,57,56,52,41,94,73,32,30.10,29.84,29.73,10,10,5,20,11,29,0.15,5,Rain,341
2012-3-27,62,54,44,43,33,25,89,52,24,30.35,30.28,30.13,10,10,10,14,8,20,0.00,0,,25
2012-3-28,77,58,39,60,51,38,97,74,50,30.31,30.11,29.92,10,10,10,18,4,31,0.00,1,,228
2012-3-29,84,73,60,58,52,42,77,55,24,29.97,29.88,29.84,10,10,10,21,12,28,0.00,0,,289
2012-3-30,77,65,55,66,59,46,97,78,62,30.03,29.95,29.90,10,9,2,13,9,,0.19,5,Rain-Thunderstorm,104
2012-3-31,72,66,62,65,62,58,100,86,73,29.91,29.81,29.72,10,9,2,15,6,18,0.17,5,Rain,239